Time;durP1;ratioP1;P1;durP2;ratioP2;P2;SDS_P1;SDS_P2;PMS_P1;PMS_P2;Temp;Humidity;BMP_temperature;BMP_pressure;BME280_temperature;BME280_humidity;BME280_pressure;Samples;Min_cycle;Max_cycle;Signal;HPM_P1;HPM_P2
2022/04/11 00:00:50;;;;;;;4.35;3.83;;;3.10;99.90;;;;;;5035989;28;20586;-55
2022/04/11 00:03:17;;;;;;;7.28;4.40;;;3.00;99.90;;;;;;5036097;28;20191;-55
2022/04/11 00:05:44;;;;;;;5.90;4.13;;;3.00;99.90;;;;;;5034142;28;20198;-54
2022/04/11 00:08:13;;;;;;;5.30;4.00;;;2.90;99.90;;;;;;5033134;28;20203;-55
2022/04/11 00:10:40;;;;;;;5.65;3.55;;;2.90;99.90;;;;;;5033529;28;20206;-55
2022/04/11 00:13:08;;;;;;;7.60;4.80;;;2.80;99.90;;;;;;5033202;28;20230;-55
2022/04/11 00:15:38;;;;;;;6.28;3.97;;;2.80;99.90;;;;;;5033228;28;20691;-54
2022/04/11 00:18:06;;;;;;;6.25;4.15;;;2.70;99.90;;;;;;5033371;28;20203;-55
2022/04/11 00:20:34;;;;;;;5.20;4.70;;;2.60;99.90;;;;;;5033308;28;20206;-54
2022/04/11 00:23:03;;;;;;;6.25;4.70;;;2.60;99.90;;;;;;5033963;28;20222;-55
2022/04/11 00:25:32;;;;;;;7.15;4.30;;;2.50;99.90;;;;;;5036862;28;20194;-56
2022/04/11 00:27:59;;;;;;;4.95;4.18;;;2.50;99.90;;;;;;5037411;28;20202;-54
2022/04/11 00:30:26;;;;;;;4.70;4.05;;;2.50;99.90;;;;;;5037006;28;20209;-55
2022/04/11 00:32:53;;;;;;;5.47;4.68;;;2.40;99.90;;;;;;5037264;28;20237;-56
2022/04/11 00:35:20;;;;;;;7.07;4.05;;;2.40;99.90;;;;;;5037290;28;20230;-54
2022/04/11 00:37:47;;;;;;;4.88;3.92;;;2.40;99.90;;;;;;5037387;28;20210;-54
2022/04/11 00:40:15;;;;;;;4.97;3.85;;;2.40;99.90;;;;;;5037346;28;20198;-56
2022/04/11 00:42:43;;;;;;;6.28;3.58;;;2.40;99.90;;;;;;5037731;28;20226;-55
2022/04/11 00:45:10;;;;;;;6.75;3.92;;;2.30;99.90;;;;;;5037692;28;20194;-55
2022/04/11 00:47:37;;;;;;;3.85;3.30;;;2.30;99.90;;;;;;5037493;28;20205;-55
2022/04/11 00:50:07;;;;;;;5.80;4.38;;;2.30;99.90;;;;;;5037740;28;20202;-56
2022/04/11 00:52:38;;;;;;;6.00;3.47;;;2.30;99.90;;;;;;5037896;28;20222;-54
2022/04/11 00:55:08;;;;;;;12.45;4.03;;;2.20;99.90;;;;;;5038027;28;20207;-55
2022/04/11 00:57:35;;;;;;;7.65;3.95;;;2.20;99.90;;;;;;5038122;28;20230;-54
2022/04/11 01:00:06;;;;;;;5.53;3.88;;;2.10;99.90;;;;;;5037301;28;20206;-55
2022/04/11 01:02:33;;;;;;;4.45;3.60;;;2.10;99.90;;;;;;5036550;28;20729;-55
2022/04/11 01:05:01;;;;;;;5.57;3.50;;;2.10;99.90;;;;;;5036609;28;20198;-55
2022/04/11 01:07:28;;;;;;;7.13;3.92;;;2.00;99.90;;;;;;5036669;28;20206;-55
2022/04/11 01:09:56;;;;;;;5.80;3.60;;;2.00;99.90;;;;;;5036616;28;20202;-55
2022/04/11 01:12:23;;;;;;;6.05;4.10;;;2.00;99.90;;;;;;5036630;28;20224;-54
2022/04/11 01:14:50;;;;;;;5.40;3.58;;;2.00;99.90;;;;;;5036141;28;20702;-55
2022/04/11 01:17:19;;;;;;;5.45;3.83;;;1.90;99.90;;;;;;5036533;28;20203;-55
2022/04/11 01:19:46;;;;;;;5.40;4.07;;;1.90;99.90;;;;;;5036451;28;20599;-55
2022/04/11 01:22:14;;;;;;;4.50;4.00;;;1.90;99.90;;;;;;5036191;28;20230;-55
2022/04/11 01:24:41;;;;;;;3.75;3.40;;;1.80;99.90;;;;;;5036542;28;20198;-55
2022/04/11 01:27:09;;;;;;;5.47;4.10;;;1.80;99.90;;;;;;5036077;28;20674;-55
2022/04/11 01:29:36;;;;;;;4.80;4.10;;;1.80;99.90;;;;;;5036787;28;20206;-55
2022/04/11 01:32:05;;;;;;;6.32;4.63;;;1.80;99.90;;;;;;5036361;28;20226;-55
2022/04/11 01:34:32;;;;;;;4.28;3.80;;;1.80;99.90;;;;;;5036215;28;20256;-56
2022/04/11 01:36:59;;;;;;;8.45;4.25;;;1.80;99.90;;;;;;5035185;28;20678;-55
2022/04/11 01:39:27;;;;;;;4.22;3.83;;;1.80;99.90;;;;;;5036152;28;20206;-56
2022/04/11 01:41:54;;;;;;;6.30;3.90;;;1.80;99.90;;;;;;5035797;28;20722;-54
2022/04/11 01:44:22;;;;;;;5.55;4.35;;;1.80;99.90;;;;;;5035899;28;20195;-56
2022/04/11 01:46:50;;;;;;;5.50;3.58;;;1.80;99.90;;;;;;5036177;28;20198;-55
2022/04/11 01:49:17;;;;;;;5.82;4.03;;;1.80;99.90;;;;;;5036442;28;20293;-55
2022/04/11 01:51:44;;;;;;;7.07;4.55;;;1.80;99.90;;;;;;5036244;28;20258;-53
2022/04/11 01:54:11;;;;;;;5.88;3.97;;;1.80;99.90;;;;;;5036355;28;20205;-55
2022/04/11 01:56:40;;;;;;;5.25;3.88;;;1.80;99.90;;;;;;5035858;28;20210;-54
2022/04/11 01:59:07;;;;;;;4.70;4.20;;;1.80;99.90;;;;;;5036731;28;20210;-54
2022/04/11 02:01:34;;;;;;;5.30;4.20;;;1.80;99.90;;;;;;5037211;28;20261;-54
2022/04/11 02:04:01;;;;;;;4.47;3.60;;;1.70;99.90;;;;;;5037712;28;20624;-55
2022/04/11 02:06:28;;;;;;;6.28;3.88;;;1.70;99.90;;;;;;5036238;28;20213;-55
2022/04/11 02:08:55;;;;;;;7.55;4.38;;;1.70;99.90;;;;;;5036114;28;20210;-55
2022/04/11 02:11:22;;;;;;;4.93;3.40;;;1.70;99.90;;;;;;5036228;28;20230;-55
2022/04/11 02:13:51;;;;;;;6.32;4.15;;;1.70;99.90;;;;;;5036457;28;20210;-55
2022/04/11 02:16:18;;;;;;;7.28;4.20;;;1.70;99.90;;;;;;5036189;28;20222;-55
2022/04/11 02:18:45;;;;;;;7.22;3.90;;;1.70;99.90;;;;;;5036009;28;20205;-53
2022/04/11 02:21:12;;;;;;;4.75;3.60;;;1.70;99.90;;;;;;5036185;28;20245;-54
2022/04/11 02:23:39;;;;;;;3.90;3.60;;;1.70;99.90;;;;;;5036259;28;20199;-54
2022/04/11 02:26:06;;;;;;;5.43;3.78;;;1.70;99.90;;;;;;5036430;28;20202;-53
2022/04/11 02:28:33;;;;;;;7.63;3.53;;;1.60;99.90;;;;;;5035858;28;20556;-54
2022/04/11 02:31:02;;;;;;;5.93;4.10;;;1.70;99.90;;;;;;5035038;28;20221;-53
2022/04/11 02:33:29;;;;;;;7.13;4.70;;;1.60;99.90;;;;;;5034748;28;20709;-54
2022/04/11 02:35:56;;;;;;;5.18;4.20;;;1.60;99.90;;;;;;5035108;28;20214;-54
2022/04/11 02:38:23;;;;;;;5.53;3.97;;;1.60;99.90;;;;;;5034511;28;20203;-53
2022/04/11 02:40:50;;;;;;;5.50;3.80;;;1.70;99.90;;;;;;5034808;28;20237;-55
2022/04/11 02:43:17;;;;;;;4.47;4.03;;;1.70;99.90;;;;;;5034547;28;20202;-54
2022/04/11 02:45:44;;;;;;;5.45;3.97;;;1.70;99.90;;;;;;5034812;28;20198;-55
2022/04/11 02:48:13;;;;;;;5.20;4.70;;;1.80;99.90;;;;;;5033656;28;20210;-55
2022/04/11 02:50:40;;;;;;;4.82;3.97;;;1.80;99.90;;;;;;5034478;28;20209;-54
2022/04/11 02:53:07;;;;;;;4.40;4.00;;;1.80;99.90;;;;;;5034457;28;20237;-54
2022/04/11 02:55:34;;;;;;;5.20;3.72;;;1.90;99.90;;;;;;5034499;28;20592;-54
2022/04/11 02:58:01;;;;;;;5.15;4.57;;;1.90;99.90;;;;;;5034264;28;20701;-55
2022/04/11 03:00:28;;;;;;;5.55;3.85;;;2.00;99.90;;;;;;5034625;28;20574;-54
2022/04/11 03:02:55;;;;;;;5.18;3.90;;;2.00;99.90;;;;;;5034081;28;20234;-55
2022/04/11 03:05:24;;;;;;;4.00;3.60;;;2.10;99.90;;;;;;5034451;28;20205;-54
2022/04/11 03:07:51;;;;;;;7.03;3.70;;;2.20;99.90;;;;;;5034385;28;20203;-53
2022/04/11 03:10:19;;;;;;;5.00;4.15;;;2.20;99.90;;;;;;5035173;28;20206;-54
2022/04/11 03:12:46;;;;;;;4.10;3.67;;;2.30;99.90;;;;;;5034220;28;20258;-53
2022/04/11 03:15:13;;;;;;;9.73;3.70;;;2.30;99.90;;;;;;5033814;28;20593;-54
2022/04/11 03:17:40;;;;;;;5.25;4.10;;;2.40;99.90;;;;;;5033796;28;20706;-55
2022/04/11 03:20:09;;;;;;;4.45;3.20;;;2.40;99.90;;;;;;5034035;28;20213;-55
2022/04/11 03:22:37;;;;;;;6.35;3.60;;;2.50;99.90;;;;;;5034765;28;20280;-56
2022/04/11 03:25:05;;;;;;;3.83;3.25;;;2.50;99.90;;;;;;5033770;28;20583;-55
2022/04/11 03:27:32;;;;;;;3.70;3.10;;;2.60;99.90;;;;;;5034170;28;20241;-55
2022/04/11 03:29:59;;;;;;;6.63;4.05;;;2.60;99.90;;;;;;5034262;28;20229;-55
2022/04/11 03:32:26;;;;;;;4.22;3.58;;;2.70;99.90;;;;;;5033555;28;20223;-55
2022/04/11 03:34:53;;;;;;;6.97;3.50;;;2.70;99.90;;;;;;5033370;28;20218;-54
2022/04/11 03:37:20;;;;;;;4.65;2.90;;;2.80;99.90;;;;;;5033469;28;20705;-54
2022/04/11 03:39:49;;;;;;;3.53;3.22;;;2.80;99.90;;;;;;5033478;28;20205;-54
2022/04/11 03:42:16;;;;;;;3.65;2.88;;;2.80;99.90;;;;;;5033547;28;20232;-55
2022/04/11 03:44:43;;;;;;;7.03;3.40;;;2.90;99.90;;;;;;5033427;28;20209;-55
2022/04/11 03:47:10;;;;;;;5.32;3.25;;;2.90;99.90;;;;;;5033372;28;20243;-55
2022/04/11 03:49:37;;;;;;;3.90;3.30;;;2.90;99.90;;;;;;5033689;28;20256;-54
2022/04/11 03:52:05;;;;;;;6.00;3.05;;;2.90;99.90;;;;;;5033554;28;20310;-53
2022/04/11 03:54:32;;;;;;;4.18;3.15;;;2.90;99.90;;;;;;5033570;28;20206;-55
2022/04/11 03:57:01;;;;;;;3.90;3.55;;;3.00;99.90;;;;;;5033557;28;20206;-55
2022/04/11 03:59:28;;;;;;;6.93;3.75;;;3.00;99.90;;;;;;5033202;28;20206;-54
2022/04/11 04:01:56;;;;;;;4.82;3.30;;;3.00;99.90;;;;;;5033241;28;20225;-54
2022/04/11 04:04:23;;;;;;;7.57;4.25;;;3.00;99.90;;;;;;5033199;28;20577;-55
2022/04/11 04:09:38;;;;;;;3.88;3.13;;;3.00;99.90;;;;;;5111861;27;20970;-55
2022/04/11 04:12:06;;;;;;;3.90;3.50;;;3.00;99.90;;;;;;5111097;28;20219;-56
2022/04/11 04:14:33;;;;;;;4.20;3.70;;;3.00;99.90;;;;;;5111328;28;20200;-56
2022/04/11 04:17:00;;;;;;;6.43;3.30;;;3.10;99.90;;;;;;5111683;28;20203;-56
2022/04/11 04:19:27;;;;;;;6.78;3.33;;;3.10;99.90;;;;;;5111102;28;20686;-55
2022/04/11 04:21:54;;;;;;;5.57;4.22;;;3.10;99.90;;;;;;5110916;28;20224;-54
2022/04/11 04:24:22;;;;;;;4.45;4.03;;;3.10;99.90;;;;;;5111502;28;20207;-54
2022/04/11 04:26:51;;;;;;;6.25;3.75;;;3.10;99.90;;;;;;5110972;28;20199;-55
2022/04/11 04:29:18;;;;;;;4.00;3.60;;;3.20;99.90;;;;;;5111014;28;20222;-55
2022/04/11 04:31:45;;;;;;;8.05;3.45;;;3.20;99.90;;;;;;5111049;28;20219;-56
2022/04/11 04:34:12;;;;;;;4.85;3.92;;;3.20;99.90;;;;;;5110937;28;20223;-55
2022/04/11 04:36:39;;;;;;;4.32;3.92;;;3.20;99.90;;;;;;5110517;28;20297;-56
2022/04/11 04:39:06;;;;;;;5.22;4.25;;;3.20;99.90;;;;;;5110900;28;20198;-55
2022/04/11 04:41:33;;;;;;;5.50;4.68;;;3.20;99.90;;;;;;5110495;28;20605;-56
2022/04/11 04:44:02;;;;;;;5.30;4.00;;;3.20;99.90;;;;;;5111042;28;20199;-53
2022/04/11 04:46:29;;;;;;;4.82;3.65;;;3.20;99.90;;;;;;5111563;28;20199;-56
2022/04/11 04:48:57;;;;;;;5.28;3.90;;;3.20;99.90;;;;;;5112252;28;20766;-56
2022/04/11 04:51:24;;;;;;;4.32;3.92;;;3.30;99.90;;;;;;5112141;28;20231;-56
2022/04/11 04:53:51;;;;;;;8.77;4.18;;;3.30;99.90;;;;;;5111411;28;20698;-56
2022/04/11 04:56:18;;;;;;;3.55;3.17;;;3.30;99.90;;;;;;5110719;28;20691;-56
2022/04/11 04:58:46;;;;;;;5.45;3.80;;;3.40;99.90;;;;;;5110903;28;20203;-55
2022/04/11 05:01:14;;;;;;;2.97;2.67;;;3.40;99.90;;;;;;5110203;28;20315;-55
2022/04/11 05:03:42;;;;;;;4.45;3.60;;;3.40;99.90;;;;;;5116636;22;20226;-61
2022/04/11 05:06:10;;;;;;;5.47;3.42;;;3.50;99.90;;;;;;5051125;28;20565;-60
2022/04/11 05:08:37;;;;;;;6.90;3.55;;;3.50;99.90;;;;;;5052513;28;20234;-60
2022/04/11 05:11:04;;;;;;;3.60;3.25;;;3.60;99.90;;;;;;5052553;28;20202;-60
2022/04/11 05:13:31;;;;;;;7.55;3.70;;;3.60;99.90;;;;;;5050579;28;20221;-60
2022/04/11 05:15:58;;;;;;;4.07;3.28;;;3.70;99.90;;;;;;5051405;28;20285;-60
2022/04/11 05:18:27;;;;;;;3.78;3.22;;;3.70;99.90;;;;;;5051641;28;20198;-60
2022/04/11 05:20:54;;;;;;;3.45;3.10;;;3.80;99.90;;;;;;5037858;28;20208;-61
2022/04/11 05:23:21;;;;;;;5.03;3.08;;;3.80;99.90;;;;;;5038012;28;20249;-60
2022/04/11 05:25:49;;;;;;;4.68;3.78;;;3.80;99.90;;;;;;5038777;28;20234;-60
2022/04/11 05:28:16;;;;;;;3.45;3.15;;;3.90;99.90;;;;;;5038511;28;20764;-60
2022/04/11 05:30:43;;;;;;;3.42;3.00;;;3.90;99.90;;;;;;5036408;28;20301;-60
2022/04/11 05:33:10;;;;;;;3.10;2.80;;;4.00;99.90;;;;;;5036462;28;20276;-61
2022/04/11 05:35:39;;;;;;;3.60;3.30;;;4.10;99.90;;;;;;5036678;28;20301;-60
2022/04/11 05:38:06;;;;;;;3.88;2.78;;;4.20;99.90;;;;;;5036460;28;20289;-61
2022/04/11 05:40:33;;;;;;;5.35;3.15;;;4.30;99.90;;;;;;5036259;28;20206;-60
2022/04/11 05:43:01;;;;;;;5.72;3.50;;;4.40;99.90;;;;;;5036465;28;20230;-60
2022/04/11 05:45:28;;;;;;;6.03;3.70;;;4.50;99.90;;;;;;5036069;28;20742;-60
2022/04/11 05:47:55;;;;;;;7.10;4.20;;;4.50;99.90;;;;;;5036089;28;20198;-60
2022/04/11 05:50:22;;;;;;;3.85;3.40;;;4.60;99.90;;;;;;5035834;28;20678;-61
2022/04/11 05:52:51;;;;;;;6.68;3.75;;;4.70;99.90;;;;;;5035810;28;20281;-61
2022/04/11 05:55:18;;;;;;;4.63;4.18;;;4.70;99.90;;;;;;5035778;28;20693;-60
2022/04/11 05:57:45;;;;;;;4.55;3.05;;;4.80;99.90;;;;;;5036032;28;20213;-61
2022/04/11 06:00:13;;;;;;;5.47;3.70;;;4.90;99.90;;;;;;5036301;28;20224;-61
2022/04/11 06:02:40;;;;;;;5.47;3.05;;;4.90;99.90;;;;;;5035362;28;20285;-59
2022/04/11 06:05:09;;;;;;;4.22;3.72;;;5.00;99.90;;;;;;5035569;28;20191;-61
2022/04/11 06:07:36;;;;;;;4.85;2.90;;;5.00;99.90;;;;;;5035910;28;20205;-61
2022/04/11 06:10:07;;;;;;;4.32;3.22;;;5.00;99.90;;;;;;5035666;28;20214;-62
2022/04/11 06:12:34;;;;;;;4.88;2.88;;;5.00;99.90;;;;;;5036334;28;20226;-62
2022/04/11 06:15:01;;;;;;;4.20;3.42;;;5.00;99.90;;;;;;5035672;28;20205;-61
2022/04/11 06:17:28;;;;;;;5.30;3.65;;;5.10;99.90;;;;;;5035421;28;20202;-61
2022/04/11 06:19:58;;;;;;;5.78;3.15;;;5.10;99.90;;;;;;5035425;28;20701;-61
2022/04/11 06:22:26;;;;;;;3.30;3.00;;;5.20;99.90;;;;;;5038328;28;20199;-61
2022/04/11 06:25:00;;;;;;;3.95;3.58;;;5.20;99.90;;;;;;5039937;28;20228;-61
2022/04/11 06:27:29;;;;;;;4.75;3.35;;;5.20;99.90;;;;;;5043631;28;20240;-61
2022/04/11 06:29:57;;;;;;;3.65;3.20;;;5.30;99.90;;;;;;5040843;28;20230;-61
2022/04/11 06:32:28;;;;;;;4.05;3.65;;;5.40;99.90;;;;;;5037203;28;20229;-61
2022/04/11 06:34:55;;;;;;;10.00;4.15;;;5.60;99.90;;;;;;5037016;28;20226;-61
2022/04/11 06:37:23;;;;;;;5.47;3.92;;;5.80;99.90;;;;;;5037085;28;20225;-60
2022/04/11 06:39:51;;;;;;;7.13;4.13;;;5.90;99.90;;;;;;5037549;28;20237;-62
2022/04/11 06:42:18;;;;;;;6.90;3.50;;;6.10;99.80;;;;;;5037801;28;20205;-61
2022/04/11 06:44:46;;;;;;;4.40;3.30;;;6.30;99.20;;;;;;5037645;28;20594;-61
2022/04/11 06:47:13;;;;;;;7.72;3.55;;;6.40;98.60;;;;;;5039154;28;20198;-62
2022/04/11 06:49:41;;;;;;;5.53;4.30;;;6.60;98.10;;;;;;5041419;28;20214;-62
2022/04/11 06:52:08;;;;;;;5.30;3.72;;;6.70;97.40;;;;;;5039364;28;20211;-61
2022/04/11 06:54:35;;;;;;;4.35;3.22;;;6.80;96.90;;;;;;5038503;28;20223;-61
2022/04/11 06:57:02;;;;;;;5.05;4.20;;;6.90;96.00;;;;;;5037803;28;20675;-61
2022/04/11 06:59:29;;;;;;;8.20;4.63;;;6.90;95.70;;;;;;5038558;28;20201;-62
2022/04/11 07:01:58;;;;;;;5.60;3.80;;;6.90;95.50;;;;;;5046542;28;20213;-62
2022/04/11 07:04:25;;;;;;;5.20;3.97;;;7.10;95.30;;;;;;5044925;28;20230;-61
2022/04/11 07:06:52;;;;;;;4.88;3.65;;;7.30;94.70;;;;;;5044613;28;20260;-61
2022/04/11 07:09:19;;;;;;;3.65;3.20;;;7.40;94.10;;;;;;5044300;28;20222;-61
2022/04/11 07:11:46;;;;;;;7.25;3.80;;;7.60;93.70;;;;;;5044157;28;20265;-61
2022/04/11 07:14:13;;;;;;;6.82;3.30;;;7.70;93.10;;;;;;5044272;28;20218;-62
2022/04/11 07:16:40;;;;;;;5.40;3.05;;;7.90;92.60;;;;;;5044593;28;20203;-61
2022/04/11 07:19:09;;;;;;;4.70;3.55;;;8.00;92.10;;;;;;5045859;28;20202;-61
2022/04/11 07:21:36;;;;;;;4.97;3.15;;;8.10;91.70;;;;;;5038576;28;20206;-61
2022/04/11 07:24:03;;;;;;;3.92;3.50;;;8.20;91.30;;;;;;5033890;28;20218;-61
2022/04/11 07:26:30;;;;;;;4.93;4.00;;;8.30;90.60;;;;;;5033996;28;20233;-61
2022/04/11 07:28:57;;;;;;;4.90;3.55;;;8.40;90.20;;;;;;5034498;28;20683;-62
2022/04/11 07:31:27;;;;;;;6.60;3.25;;;8.40;89.60;;;;;;5033999;28;20233;-61
2022/04/11 07:33:54;;;;;;;3.80;2.92;;;8.50;88.10;;;;;;5034109;28;20301;-60
2022/04/11 07:36:22;;;;;;;6.13;3.05;;;8.60;87.10;;;;;;5034002;28;20209;-60
2022/04/11 07:38:49;;;;;;;4.13;2.15;;;8.70;86.00;;;;;;5034908;28;20603;-61
2022/04/11 07:41:17;;;;;;;5.15;3.20;;;8.90;85.00;;;;;;5033994;28;20578;-61
2022/04/11 07:43:44;;;;;;;4.07;2.90;;;9.00;83.50;;;;;;5033307;28;20312;-60
2022/04/11 07:46:11;;;;;;;3.20;2.90;;;9.20;81.60;;;;;;5033926;28;20221;-61
2022/04/11 07:48:38;;;;;;;4.13;2.80;;;9.30;80.10;;;;;;5033683;28;20222;-61
2022/04/11 07:51:05;;;;;;;4.47;2.22;;;9.40;77.40;;;;;;5033706;28;20576;-61
2022/04/11 07:53:33;;;;;;;4.40;3.20;;;9.40;75.40;;;;;;5033874;28;20230;-61
2022/04/11 07:56:00;;;;;;;4.10;3.17;;;9.40;73.00;;;;;;5033918;28;20870;-61
2022/04/11 07:58:27;;;;;;;2.70;1.95;;;9.40;71.90;;;;;;5033867;28;20441;-61
2022/04/11 08:00:54;;;;;;;3.05;2.70;;;9.40;69.80;;;;;;5033374;28;20234;-61
2022/04/11 08:03:22;;;;;;;5.15;2.55;;;9.50;68.10;;;;;;5033512;28;20230;-60
2022/04/11 08:05:49;;;;;;;5.60;2.30;;;9.50;66.50;;;;;;5033811;28;20556;-60
2022/04/11 08:08:16;;;;;;;3.60;2.10;;;9.50;65.20;;;;;;5030381;28;20453;-62
2022/04/11 08:10:45;;;;;;;3.53;2.85;;;9.60;64.50;;;;;;5032109;28;20555;-62
2022/04/11 08:13:12;;;;;;;3.10;2.47;;;9.70;63.80;;;;;;5050942;28;20229;-59
2022/04/11 08:15:39;;;;;;;3.70;2.67;;;9.80;62.60;;;;;;5053189;28;20928;-60
2022/04/11 08:18:07;;;;;;;5.60;2.70;;;9.90;61.60;;;;;;5053041;28;20966;-60
2022/04/11 08:20:34;;;;;;;4.50;3.00;;;10.00;59.90;;;;;;5051814;28;20438;-61
2022/04/11 08:23:01;;;;;;;6.20;3.10;;;10.20;57.40;;;;;;5049074;28;20237;-60
2022/04/11 08:25:28;;;;;;;6.43;3.40;;;10.30;56.70;;;;;;5032991;28;20446;-60
2022/04/11 08:27:56;;;;;;;8.83;3.07;;;10.50;56.30;;;;;;5031778;28;20476;-61
2022/04/11 08:30:23;;;;;;;3.33;2.63;;;10.50;55.50;;;;;;5033601;28;20483;-60
2022/04/11 08:33:32;;;;;;;3.33;2.43;;;10.60;55.50;;;;;;5032477;28;20513;-59
2022/04/11 08:35:59;;;;;;;4.03;2.70;;;10.70;54.70;;;;;;4990642;28;20427;-61
2022/04/11 08:38:26;;;;;;;7.13;3.17;;;10.90;54.20;;;;;;5008165;28;20458;-57
2022/04/11 08:40:55;;;;;;;3.10;2.80;;;10.90;53.70;;;;;;5013371;28;20512;-61
2022/04/11 08:43:23;;;;;;;4.33;2.57;;;11.00;53.30;;;;;;5013340;28;20473;-61
2022/04/11 08:45:53;;;;;;;4.83;2.80;;;11.30;53.10;;;;;;5028347;28;20502;-61
2022/04/11 08:48:22;;;;;;;6.30;2.90;;;11.60;52.60;;;;;;5032755;28;20587;-60
2022/04/11 08:50:49;;;;;;;3.90;2.70;;;11.80;51.80;;;;;;5033828;28;20520;-61
2022/04/11 08:53:21;;;;;;;4.10;2.83;;;11.80;51.10;;;;;;5033818;28;20476;-60
2022/04/11 08:55:48;;;;;;;3.53;2.50;;;11.90;51.00;;;;;;5035359;28;20795;-60
2022/04/11 08:58:15;;;;;;;9.47;2.83;;;12.10;51.00;;;;;;5036703;28;20849;-60
2022/04/11 09:00:43;;;;;;;3.27;2.80;;;12.50;50.90;;;;;;5036973;28;20445;-61
2022/04/11 09:03:11;;;;;;;5.30;2.80;;;12.80;50.00;;;;;;5035956;28;20484;-63
2022/04/11 09:05:38;;;;;;;4.63;2.30;;;13.00;48.60;;;;;;5036287;28;20840;-61
2022/04/11 09:08:05;;;;;;;2.57;2.37;;;13.20;47.70;;;;;;5036631;28;20456;-60
2022/04/11 09:10:36;;;;;;;3.90;2.50;;;13.30;47.50;;;;;;5036911;28;20469;-61
2022/04/11 09:13:04;;;;;;;3.60;2.70;;;13.30;47.00;;;;;;5035739;28;20511;-61
2022/04/11 09:15:40;;;;;;;3.67;2.40;;;13.30;46.80;;;;;;5035945;28;20454;-60
2022/04/11 09:18:09;;;;;;;4.63;3.00;;;13.30;46.30;;;;;;5036876;28;20433;-61
2022/04/11 09:20:41;;;;;;;4.37;2.60;;;13.10;44.00;;;;;;5036098;28;20940;-61
2022/04/11 09:23:19;;;;;;;4.83;2.97;;;12.90;43.90;;;;;;5035706;28;20476;-61
2022/04/11 09:25:46;;;;;;;4.97;3.47;;;12.70;43.40;;;;;;5036326;28;20429;-61
2022/04/11 09:28:13;;;;;;;2.97;2.67;;;12.70;43.60;;;;;;5036892;28;20452;-61
2022/04/11 09:30:43;;;;;;;4.73;3.10;;;12.70;43.50;;;;;;5035797;28;20481;-61
2022/04/11 09:33:12;;;;;;;6.43;3.20;;;12.90;43.10;;;;;;5034985;28;21099;-60
2022/04/11 09:35:41;;;;;;;5.00;2.97;;;13.00;42.00;;;;;;5036013;28;20445;-61
2022/04/11 09:38:13;;;;;;;3.77;3.37;;;13.00;41.70;;;;;;5036793;28;20441;-61
2022/04/11 09:40:43;;;;;;;4.30;3.23;;;13.10;41.70;;;;;;5035580;28;20457;-61
2022/04/11 09:43:10;;;;;;;7.50;4.17;;;13.20;41.30;;;;;;5035897;28;20473;-61
2022/04/11 09:45:44;;;;;;;6.27;3.93;;;13.20;40.80;;;;;;5035981;28;20452;-61
2022/04/11 09:48:18;;;;;;;5.90;3.70;;;13.10;40.40;;;;;;5036131;28;20429;-62
2022/04/11 09:50:45;;;;;;;5.40;4.30;;;13.20;40.30;;;;;;5035113;28;20508;-61
2022/04/11 09:53:14;;;;;;;6.37;4.23;;;13.20;40.10;;;;;;5035333;28;20587;-61
2022/04/11 09:55:42;;;;;;;6.03;4.10;;;13.10;39.80;;;;;;5035397;28;20502;-61
2022/04/11 09:58:10;;;;;;;7.70;4.70;;;13.00;40.00;;;;;;5034532;28;20445;-61
2022/04/11 10:00:39;;;;;;;6.10;4.17;;;12.90;40.00;;;;;;5035571;28;20869;-61
2022/04/11 10:03:07;;;;;;;7.53;4.87;;;12.70;40.00;;;;;;5034999;28;20499;-62
2022/04/11 10:05:36;;;;;;;5.43;4.47;;;12.60;40.00;;;;;;5035734;28;20450;-61
2022/04/11 10:08:05;;;;;;;6.20;4.40;;;12.50;40.40;;;;;;5040544;28;20452;-60
2022/04/11 10:10:34;;;;;;;5.20;4.00;;;12.50;40.60;;;;;;5048874;28;20473;-61
2022/04/11 10:13:01;;;;;;;5.30;4.30;;;12.50;40.40;;;;;;5047632;28;20469;-61
2022/04/11 10:15:28;;;;;;;5.93;5.10;;;12.50;40.20;;;;;;5047322;28;20799;-61
2022/04/11 10:17:57;;;;;;;6.60;4.77;;;12.50;40.10;;;;;;5048145;28;20452;-61
2022/04/11 10:20:26;;;;;;;7.90;5.70;;;12.50;40.10;;;;;;5045953;28;20476;-60
2022/04/11 10:23:03;;;;;;;4.90;4.33;;;12.60;40.30;;;;;;5039050;28;20523;-59
2022/04/11 10:25:35;;;;;;;8.40;4.53;;;12.60;40.40;;;;;;5037275;28;20496;-60
2022/04/11 10:28:16;;;;;;;5.43;4.43;;;12.70;40.40;;;;;;5036745;28;20430;-60
2022/04/11 10:30:44;;;;;;;8.80;5.60;;;12.70;40.30;;;;;;5037118;28;20485;-60
2022/04/11 10:33:12;;;;;;;7.63;4.93;;;12.70;40.30;;;;;;5041179;28;20462;-61
2022/04/11 10:35:43;;;;;;;7.80;5.67;;;12.70;40.20;;;;;;5040690;28;20464;-61
2022/04/11 10:38:15;;;;;;;5.67;5.00;;;12.70;40.10;;;;;;5051885;28;20441;-61
2022/04/11 10:40:48;;;;;;;9.13;5.13;;;12.70;40.30;;;;;;5051133;28;20425;-61
2022/04/11 10:43:17;;;;;;;8.37;5.70;;;12.80;40.40;;;;;;5051319;28;20472;-61
2022/04/11 10:45:55;;;;;;;6.30;5.13;;;12.80;40.20;;;;;;5049071;28;20444;-61
2022/04/11 10:48:59;;;;;;;7.57;5.43;;;12.80;39.90;;;;;;5046576;28;20785;-61
2022/04/11 10:51:26;;;;;;;6.00;5.17;;;12.80;39.90;;;;;;5034942;28;20830;-62
2022/04/11 10:54:21;;;;;;;5.80;4.87;;;12.90;39.80;;;;;;5034686;28;20866;-61
2022/04/11 10:56:53;;;;;;;7.63;5.23;;;12.90;39.80;;;;;;5034842;28;20471;-61
2022/04/11 10:59:27;;;;;;;6.97;5.00;;;12.90;39.80;;;;;;5033943;28;20449;-61
2022/04/11 11:01:56;;;;;;;7.63;5.40;;;12.90;40.00;;;;;;5034398;28;20455;-61
2022/04/11 11:04:27;;;;;;;6.00;5.30;;;13.00;39.90;;;;;;5066189;22;21178;-54
2022/04/11 11:07:33;;;;;;;7.10;4.33;;;13.10;39.80;;;;;;5034228;28;20432;-54
2022/04/11 11:10:02;;;;;;;6.60;4.80;;;13.30;40.10;;;;;;5017613;28;20491;-54
2022/04/11 11:12:29;;;;;;;6.57;3.80;;;13.40;40.00;;;;;;5033909;28;20448;-54
2022/04/11 11:14:56;;;;;;;4.63;4.23;;;13.50;40.20;;;;;;5033696;28;20475;-54
2022/04/11 11:17:57;;;;;;;5.20;4.70;;;13.60;40.10;;;;;;5033342;28;20440;-54
2022/04/11 11:20:24;;;;;;;6.83;4.63;;;13.60;39.90;;;;;;5033522;28;20425;-55
2022/04/11 11:23:17;;;;;;;6.50;5.07;;;13.60;39.90;;;;;;5033657;28;20824;-54
2022/04/11 11:25:45;;;;;;;4.90;4.40;;;13.60;40.00;;;;;;5032136;28;20965;-55
2022/04/11 11:28:14;;;;;;;5.40;4.90;;;13.60;39.90;;;;;;5033688;28;20850;-55
2022/04/11 11:30:42;;;;;;;5.63;4.30;;;13.60;39.70;;;;;;5033700;28;20508;-53
2022/04/11 11:33:12;;;;;;;5.00;3.80;;;13.70;39.90;;;;;;5033363;28;20938;-54
2022/04/11 11:35:51;;;;;;;6.07;4.20;;;13.80;40.00;;;;;;5033643;28;20468;-55
2022/04/11 11:38:23;;;;;;;4.47;3.90;;;13.80;39.80;;;;;;5033641;28;20448;-55
2022/04/11 11:40:57;;;;;;;5.37;4.10;;;13.90;39.70;;;;;;5033432;28;20490;-54
2022/04/11 11:43:25;;;;;;;5.03;4.30;;;14.10;39.40;;;;;;5033293;28;20832;-54
2022/04/11 11:45:52;;;;;;;7.23;4.37;;;14.10;39.00;;;;;;5033097;28;20759;-54
2022/04/11 11:48:24;;;;;;;7.60;4.00;;;14.10;39.00;;;;;;5033177;28;20445;-53
2022/04/11 11:50:52;;;;;;;7.87;5.03;;;14.40;39.20;;;;;;5033506;28;20465;-53
2022/04/11 11:53:19;;;;;;;5.67;4.47;;;14.50;38.90;;;;;;5033131;28;20449;-53
2022/04/11 11:55:57;;;;;;;7.33;5.73;;;14.50;38.50;;;;;;5033185;28;20441;-53
2022/04/11 11:58:34;;;;;;;6.20;5.37;;;14.40;38.30;;;;;;5033495;28;20459;-53
2022/04/11 12:01:02;;;;;;;5.20;4.43;;;14.50;38.70;;;;;;5033029;28;20460;-54
2022/04/11 12:06:14;;;;;;;8.67;6.73;;;15.10;38.30;;;;;;5033085;28;20416;-54
2022/04/11 12:08:53;;;;;;;10.63;8.10;;;15.60;38.10;;;;;;5033281;28;20457;-54
2022/04/11 12:11:22;;;;;;;7.90;5.93;;;16.00;37.70;;;;;;5033394;28;20472;-53
2022/04/11 12:13:49;;;;;;;6.43;5.40;;;16.40;37.20;;;;;;5032933;28;20468;-55
2022/04/11 12:16:17;;;;;;;6.00;5.20;;;16.70;36.90;;;;;;5033010;28;20447;-54
2022/04/11 12:18:49;;;;;;;12.03;5.93;;;17.00;36.80;;;;;;5034094;28;20449;-54
2022/04/11 12:21:17;;;;;;;4.80;4.30;;;17.10;36.00;;;;;;5034367;28;20472;-54
2022/04/11 12:23:49;;;;;;;6.10;4.63;;;17.00;36.00;;;;;;5033891;28;20836;-51
2022/04/11 12:26:28;;;;;;;5.47;4.83;;;16.70;35.80;;;;;;5032491;28;20448;-54
2022/04/11 12:28:55;;;;;;;5.73;4.70;;;16.10;35.00;;;;;;5032612;28;20437;-53
2022/04/11 12:31:23;;;;;;;5.80;5.20;;;15.60;35.70;;;;;;5036463;28;20483;-55
2022/04/11 12:33:52;;;;;;;8.87;5.70;;;15.30;36.30;;;;;;5037131;28;20803;-54
2022/04/11 12:36:22;;;;;;;6.03;4.90;;;15.00;36.20;;;;;;5037143;28;20457;-54
2022/04/11 12:38:51;;;;;;;5.00;4.27;;;14.90;36.50;;;;;;5038032;28;20433;-54
2022/04/11 12:41:27;;;;;;;6.33;5.70;;;14.80;36.70;;;;;;5037275;28;20487;-53
2022/04/11 12:44:07;;;;;;;4.70;4.20;;;14.70;36.30;;;;;;5037092;28;20460;-54
2022/04/11 12:46:35;;;;;;;5.33;4.83;;;14.60;35.90;;;;;;5036763;28;20425;-53
2022/04/11 12:49:02;;;;;;;5.97;4.80;;;14.60;35.90;;;;;;5037293;28;20452;-54
2022/04/11 12:51:29;;;;;;;5.23;4.73;;;14.60;36.00;;;;;;5036823;28;20480;-54
2022/04/11 12:54:08;;;;;;;5.60;4.20;;;14.60;36.00;;;;;;5036784;28;20473;-54
2022/04/11 12:56:45;;;;;;;7.17;5.17;;;14.60;35.90;;;;;;5037092;28;20497;-55
2022/04/11 12:59:27;;;;;;;5.27;4.77;;;14.60;36.00;;;;;;5036522;28;20456;-54
2022/04/11 13:01:56;;;;;;;5.47;4.97;;;14.60;35.80;;;;;;5036750;28;20451;-54
2022/04/11 13:04:23;;;;;;;5.17;4.77;;;14.70;35.80;;;;;;5035827;28;20483;-54
2022/04/11 13:06:51;;;;;;;6.30;5.60;;;14.70;35.80;;;;;;5036055;28;20449;-54